createdAt,value
2019-05-29T00:01:40.464Z,8.10
2019-05-29T00:06:54.239Z,8.00
2019-05-29T00:12:08.396Z,7.90
2019-05-29T00:17:23.579Z,7.80
2019-05-29T00:22:24.865Z,7.80
2019-05-29T00:27:29.284Z,7.70
2019-05-29T00:32:33.921Z,7.70
2019-05-29T00:37:50.432Z,7.50
2019-05-29T00:42:51.803Z,7.50
2019-05-29T00:47:55.154Z,7.50
2019-05-29T00:52:59.674Z,7.40
2019-05-29T00:58:04.333Z,7.40
2019-05-29T01:03:05.615Z,7.40
2019-05-29T01:08:10.313Z,7.30
2019-05-29T01:13:13.129Z,7.30
2019-05-29T01:18:15.764Z,7.20
2019-05-29T01:23:23.267Z,7.20
2019-05-29T01:28:32.405Z,7.10
2019-05-29T01:33:34.800Z,7.00
2019-05-29T01:38:36.296Z,6.90
2019-05-29T01:43:37.770Z,6.90
2019-05-29T01:48:40.155Z,6.80
2019-05-29T01:53:44.686Z,6.80
2019-05-29T01:58:58.136Z,6.70
2019-05-29T02:04:02.861Z,6.70
2019-05-29T02:09:16.429Z,6.60
2019-05-29T02:14:20.976Z,6.60
2019-05-29T02:19:24.294Z,6.50
2019-05-29T02:24:28.848Z,6.50
2019-05-29T02:29:30.317Z,6.50
2019-05-29T02:35:12.470Z,6.40
2019-05-29T02:40:18.877Z,6.30
2019-05-29T02:45:21.679Z,6.30
2019-05-29T02:50:31.221Z,6.30
2019-05-29T02:55:32.944Z,6.20
2019-05-29T03:00:54.540Z,6.20
2019-05-29T03:05:58.911Z,6.10
2019-05-29T03:11:03.457Z,6.10
2019-05-29T03:16:30.579Z,6.00
2019-05-29T03:21:49.391Z,6.00
2019-05-29T03:26:51.454Z,6.00
2019-05-29T03:31:52.757Z,5.90
2019-05-29T03:37:00.255Z,5.90
2019-05-29T03:42:28.188Z,5.80
2019-05-29T03:47:44.105Z,5.80
2019-05-29T03:52:46.445Z,5.80
2019-05-29T03:57:55.903Z,5.90
2019-05-29T04:03:00.438Z,5.90
2019-05-29T04:08:05.007Z,6.00
2019-05-29T04:13:12.796Z,6.10
2019-05-29T04:18:19.775Z,6.30
2019-05-29T04:23:22.813Z,6.50
2019-05-29T04:28:32.369Z,6.60
2019-05-29T04:33:38.913Z,6.70
2019-05-29T04:38:40.616Z,6.80
2019-05-29T04:43:46.021Z,6.90
2019-05-29T04:48:56.373Z,7.00
2019-05-29T04:54:00.895Z,7.20
2019-05-29T04:59:08.007Z,7.50
2019-05-29T05:04:15.544Z,7.70
2019-05-29T05:09:16.980Z,7.80
2019-05-29T05:14:23.795Z,8.00
2019-05-29T05:19:31.809Z,8.20
2019-05-29T05:24:36.472Z,8.30
2019-05-29T05:29:55.132Z,8.30
2019-05-29T05:35:06.910Z,8.40
2019-05-29T05:40:11.875Z,8.80
2019-05-29T05:45:17.657Z,9.20
2019-05-29T05:50:22.510Z,9.80
2019-05-29T05:55:35.955Z,10.50
2019-05-29T06:00:55.553Z,11.10
2019-05-29T06:05:56.823Z,11.50
2019-05-29T06:11:01.269Z,11.80
2019-05-29T06:16:05.926Z,12.20
2019-05-29T06:21:08.514Z,12.30
2019-05-29T06:26:18.096Z,12.40
2019-05-29T06:37:21.485Z,12.60
2019-05-29T06:42:41.942Z,12.80
2019-05-29T06:47:44.605Z,13.00
2019-05-29T06:52:47.698Z,13.20
2019-05-29T06:58:04.465Z,13.40
2019-05-29T07:03:08.915Z,13.70
2019-05-29T07:08:38.791Z,14.10
2019-05-29T07:13:58.313Z,14.30
2019-05-29T07:19:24.794Z,14.70
2019-05-29T07:24:08.494Z,15.00
2019-05-29T07:29:09.796Z,15.30
2019-05-29T07:34:14.280Z,15.60
2019-05-29T07:39:18.787Z,15.80
2019-05-29T07:44:23.394Z,16.20
2019-05-29T07:49:39.239Z,16.50
2019-05-29T07:54:40.015Z,16.70
2019-05-29T07:59:42.663Z,17.00
2019-05-29T08:04:45.162Z,17.40
2019-05-29T08:09:47.745Z,17.60
2019-05-29T08:14:50.195Z,17.80
2019-05-29T08:20:06.579Z,18.20
2019-05-29T08:25:09.211Z,18.40
2019-05-29T08:30:17.310Z,18.60
2019-05-29T08:35:21.681Z,18.80
2019-05-29T08:40:22.935Z,19.20
2019-05-29T08:45:35.065Z,19.40
2019-05-29T08:50:36.421Z,19.50
2019-05-29T08:55:44.217Z,19.70
2019-05-29T09:00:52.295Z,19.40
2019-05-29T09:06:09.157Z,20.00
2019-05-29T09:11:11.108Z,20.50
2019-05-29T09:16:12.435Z,19.80
2019-05-29T09:21:39.176Z,19.30
2019-05-29T09:26:53.364Z,19.70
2019-05-29T09:31:58.919Z,20.70
2019-05-29T09:37:00.247Z,21.30
2019-05-29T09:42:01.667Z,21.80
2019-05-29T09:47:07.030Z,21.50
2019-05-29T09:52:11.593Z,21.50
2019-05-29T09:57:15.397Z,21.10
2019-05-29T10:02:17.003Z,20.40
2019-05-29T10:07:21.562Z,21.10
2019-05-29T10:12:26.135Z,21.40
2019-05-29T10:17:30.720Z,21.30
2019-05-29T10:22:35.181Z,21.60
2019-05-29T10:27:55.060Z,21.60
2019-05-29T10:32:59.614Z,21.90
2019-05-29T10:38:06.929Z,21.80
2019-05-29T10:43:10.317Z,21.30
2019-05-29T10:48:27.059Z,21.10
2019-05-29T10:53:31.600Z,21.30
2019-05-29T10:58:47.990Z,22.00
2019-05-29T11:03:40.102Z,22.00
2019-05-29T11:08:41.352Z,21.90
2019-05-29T11:13:46.683Z,22.20
2019-05-29T11:18:49.153Z,23.10
2019-05-29T11:23:51.778Z,23.20
2019-05-29T11:28:54.403Z,23.40
2019-05-29T11:34:01.641Z,24.30
2019-05-29T11:39:07.866Z,24.60
2019-05-29T11:44:22.661Z,24.30
2019-05-29T11:49:24.949Z,23.30
2019-05-29T11:55:08.479Z,22.30
2019-05-29T12:00:20.914Z,22.10
2019-05-29T12:05:22.705Z,22.10
2019-05-29T12:10:29.795Z,21.30
2019-05-29T12:15:31.137Z,20.50
2019-05-29T12:20:32.454Z,20.00
2019-05-29T12:25:34.844Z,19.80
2019-05-29T12:30:42.324Z,19.80
2019-05-29T12:35:44.881Z,20.10
2019-05-29T12:40:55.343Z,20.00
2019-05-29T12:46:04.027Z,19.90
2019-05-29T12:51:20.609Z,20.00
2019-05-29T12:56:25.130Z,20.20
2019-05-29T13:01:26.393Z,20.00
2019-05-29T13:06:28.682Z,20.10
2019-05-29T13:11:33.232Z,21.10
2019-05-29T13:16:40.364Z,21.80
2019-05-29T13:21:41.737Z,21.70
2019-05-29T13:26:46.248Z,21.60
2019-05-29T13:31:57.129Z,21.20
2019-05-29T13:37:02.861Z,21.10
2019-05-29T13:42:07.356Z,21.30
2019-05-29T13:47:12.265Z,23.00
2019-05-29T13:52:19.632Z,24.80
2019-05-29T13:57:22.133Z,24.60
2019-05-29T14:02:26.771Z,24.20
2019-05-29T14:07:31.208Z,23.60
2019-05-29T14:12:32.476Z,23.10
2019-05-29T14:17:48.920Z,24.50
2019-05-29T14:22:53.426Z,25.40
2019-05-29T14:27:56.768Z,24.80
2019-05-29T14:33:15.134Z,24.20
2019-05-29T14:38:16.565Z,23.50
2019-05-29T14:43:17.832Z,24.30
2019-05-29T14:48:31.300Z,26.10
2019-05-29T14:53:36.231Z,25.70
2019-05-29T15:04:42.256Z,23.20
2019-05-29T15:09:48.253Z,22.20
2019-05-29T15:15:00.988Z,22.30
2019-05-29T15:20:07.522Z,22.30
2019-05-29T15:25:18.347Z,22.60
2019-05-29T15:30:23.652Z,23.50
2019-05-29T15:35:26.403Z,23.80
2019-05-29T15:40:43.880Z,23.50
2019-05-29T15:45:48.415Z,23.40
2019-05-29T15:50:56.652Z,24.60
2019-05-29T15:56:27.380Z,26.80
2019-05-29T16:01:26.295Z,27.00
2019-05-29T16:06:27.567Z,27.10
2019-05-29T16:11:37.920Z,27.00
2019-05-29T16:16:51.285Z,25.60
2019-05-29T16:21:52.550Z,24.30
2019-05-29T16:27:08.254Z,23.60
2019-05-29T16:32:01.199Z,23.30
2019-05-29T16:37:08.612Z,22.80
2019-05-29T16:42:09.993Z,22.40
2019-05-29T16:47:12.592Z,22.20
2019-05-29T16:52:19.145Z,22.30
2019-05-29T16:57:21.203Z,21.90
2019-05-29T17:02:26.146Z,21.20
2019-05-29T17:07:27.517Z,20.60
2019-05-29T17:12:32.076Z,20.40
2019-05-29T17:17:34.545Z,20.30
2019-05-29T17:22:35.976Z,20.20
2019-05-29T17:27:46.355Z,20.10
2019-05-29T17:32:49.887Z,19.90
2019-05-29T17:38:06.139Z,19.80
2019-05-29T17:43:08.613Z,19.90
2019-05-29T17:48:13.169Z,19.60
2019-05-29T17:53:15.770Z,19.30
2019-05-29T17:58:18.593Z,18.90
2019-05-29T18:03:20.605Z,18.70
2019-05-29T18:08:23.014Z,18.50
2019-05-29T18:13:39.613Z,18.40
2019-05-29T18:18:40.975Z,18.30
2019-05-29T18:23:46.006Z,18.20
2019-05-29T18:28:53.282Z,18.10
2019-05-29T18:33:54.552Z,18.10
2019-05-29T18:39:15.247Z,17.90
2019-05-29T18:44:20.743Z,17.80
2019-05-29T18:49:26.364Z,17.70
2019-05-29T18:54:28.128Z,17.70
2019-05-29T18:59:32.626Z,17.60
2019-05-29T19:04:39.864Z,17.50
2019-05-29T19:09:43.261Z,17.40
2019-05-29T19:14:50.476Z,17.30
2019-05-29T19:19:54.840Z,17.30
2019-05-29T19:25:08.954Z,17.10
2019-05-29T19:30:12.860Z,17.00
2019-05-29T19:35:15.573Z,17.00
2019-05-29T19:40:17.032Z,16.90
2019-05-29T19:45:21.913Z,16.90
2019-05-29T19:50:23.281Z,16.80
2019-05-29T19:55:30.212Z,16.70
2019-05-29T20:00:32.135Z,16.70
2019-05-29T20:05:36.970Z,16.70
2019-05-29T20:11:00.381Z,16.60
2019-05-29T20:16:07.512Z,16.60
2019-05-29T20:21:12.051Z,16.60
2019-05-29T20:26:15.341Z,16.50
2019-05-29T20:31:22.666Z,16.50
2019-05-29T20:36:37.258Z,16.40
2019-05-29T20:41:49.252Z,16.40
2019-05-29T20:46:53.828Z,16.30
2019-05-29T20:52:04.608Z,16.20
2019-05-29T20:57:21.015Z,16.20
2019-05-29T21:02:25.538Z,16.10
2019-05-29T21:07:28.922Z,16.10
2019-05-29T21:13:04.025Z,16.00
2019-05-29T21:18:11.416Z,15.90
2019-05-29T21:23:38.317Z,15.80
2019-05-29T21:28:50.466Z,15.90
2019-05-29T21:33:55.424Z,15.90
2019-05-29T21:38:59.848Z,16.00
2019-05-29T21:44:04.321Z,15.90
2019-05-29T21:49:05.670Z,15.90
2019-05-29T21:54:10.245Z,15.80
2019-05-29T21:59:21.841Z,15.80
2019-05-29T22:04:24.266Z,15.70
2019-05-29T22:09:27.552Z,15.70
2019-05-29T22:14:34.718Z,15.70
2019-05-29T22:19:45.246Z,15.60
2019-05-29T22:24:47.664Z,15.60
2019-05-29T22:30:14.651Z,15.70
2019-05-29T22:35:21.216Z,15.60
2019-05-29T22:40:25.849Z,15.70
2019-05-29T22:45:36.200Z,15.70
2019-05-29T22:50:55.856Z,15.70
2019-05-29T22:55:57.858Z,15.70
2019-05-29T23:01:00.046Z,15.70
2019-05-29T23:06:07.338Z,15.60
2019-05-29T23:11:11.920Z,15.60
2019-05-29T23:16:16.436Z,15.60
2019-05-29T23:21:20.944Z,15.60
2019-05-29T23:26:24.247Z,15.60
2019-05-29T23:31:34.892Z,15.60
2019-05-29T23:36:42.588Z,15.60
2019-05-29T23:41:43.809Z,15.60
2019-05-29T23:46:51.035Z,15.50
2019-05-29T23:52:02.494Z,15.50
2019-05-29T23:57:11.433Z,15.50
